sensor_id;sensor_type;location;lat;lon;timestamp;P1;durP1;ratioP1;P2;durP2;ratioP2
21621;SDS011;10973;46.706;12.340;2022-10-04T00:00:41;1.50;;;1.40;;
21621;SDS011;10973;46.706;12.340;2022-10-04T00:03:12;1.60;;;1.50;;
21621;SDS011;10973;46.706;12.340;2022-10-04T00:05:54;1.30;;;1.30;;
21621;SDS011;10973;46.706;12.340;2022-10-04T00:11:15;1.47;;;1.37;;
21621;SDS011;10973;46.706;12.340;2022-10-04T00:13:56;1.20;;;1.10;;
21621;SDS011;10973;46.706;12.340;2022-10-04T00:16:31;1.13;;;1.13;;
21621;SDS011;10973;46.706;12.340;2022-10-04T00:24:22;1.20;;;1.20;;
21621;SDS011;10973;46.706;12.340;2022-10-04T00:33:15;1.20;;;1.20;;
21621;SDS011;10973;46.706;12.340;2022-10-04T00:37:57;1.40;;;1.10;;
21621;SDS011;10973;46.706;12.340;2022-10-04T00:40:34;1.20;;;1.20;;
21621;SDS011;10973;46.706;12.340;2022-10-04T00:43:32;1.27;;;1.27;;
21621;SDS011;10973;46.706;12.340;2022-10-04T00:46:12;1.47;;;1.43;;
21621;SDS011;10973;46.706;12.340;2022-10-04T00:48:55;1.20;;;1.20;;
21621;SDS011;10973;46.706;12.340;2022-10-04T00:51:31;1.33;;;1.13;;
21621;SDS011;10973;46.706;12.340;2022-10-04T00:57:06;1.37;;;1.10;;
21621;SDS011;10973;46.706;12.340;2022-10-04T00:59:43;1.33;;;1.13;;
21621;SDS011;10973;46.706;12.340;2022-10-04T01:02:27;1.20;;;1.20;;
21621;SDS011;10973;46.706;12.340;2022-10-04T01:05:24;1.93;;;1.07;;
21621;SDS011;10973;46.706;12.340;2022-10-04T01:08:16;2.43;;;1.00;;
21621;SDS011;10973;46.706;12.340;2022-10-04T01:11:14;1.30;;;1.20;;
21621;SDS011;10973;46.706;12.340;2022-10-04T01:13:51;2.43;;;1.20;;
21621;SDS011;10973;46.706;12.340;2022-10-04T01:16:40;0.90;;;0.90;;
21621;SDS011;10973;46.706;12.340;2022-10-04T01:19:51;1.23;;;1.13;;
21621;SDS011;10973;46.706;12.340;2022-10-04T01:22:42;2.10;;;1.37;;
21621;SDS011;10973;46.706;12.340;2022-10-04T01:25:41;3.33;;;1.40;;
21621;SDS011;10973;46.706;12.340;2022-10-04T01:28:10;1.20;;;1.20;;
21621;SDS011;10973;46.706;12.340;2022-10-04T01:30:38;1.10;;;1.10;;
21621;SDS011;10973;46.706;12.340;2022-10-04T01:33:05;2.07;;;1.23;;
21621;SDS011;10973;46.706;12.340;2022-10-04T01:35:33;1.17;;;1.17;;
21621;SDS011;10973;46.706;12.340;2022-10-04T01:38:01;1.30;;;1.30;;
21621;SDS011;10973;46.706;12.340;2022-10-04T01:40:30;1.97;;;1.20;;
21621;SDS011;10973;46.706;12.340;2022-10-04T01:43:08;1.50;;;1.40;;
21621;SDS011;10973;46.706;12.340;2022-10-04T01:45:42;2.83;;;1.20;;
21621;SDS011;10973;46.706;12.340;2022-10-04T01:48:22;1.10;;;1.10;;
21621;SDS011;10973;46.706;12.340;2022-10-04T01:54:01;1.20;;;1.20;;
21621;SDS011;10973;46.706;12.340;2022-10-04T02:05:42;1.47;;;1.37;;
21621;SDS011;10973;46.706;12.340;2022-10-04T02:08:21;1.87;;;1.30;;
21621;SDS011;10973;46.706;12.340;2022-10-04T02:10:54;1.20;;;1.20;;
21621;SDS011;10973;46.706;12.340;2022-10-04T02:13:24;1.70;;;1.60;;
21621;SDS011;10973;46.706;12.340;2022-10-04T02:15:59;2.50;;;1.70;;
21621;SDS011;10973;46.706;12.340;2022-10-04T02:18:29;2.17;;;1.30;;
21621;SDS011;10973;46.706;12.340;2022-10-04T02:20:58;1.20;;;1.20;;
21621;SDS011;10973;46.706;12.340;2022-10-04T02:23:25;1.40;;;1.40;;
21621;SDS011;10973;46.706;12.340;2022-10-04T02:25:54;1.00;;;1.00;;
21621;SDS011;10973;46.706;12.340;2022-10-04T02:28:21;1.20;;;1.20;;
21621;SDS011;10973;46.706;12.340;2022-10-04T02:30:50;2.03;;;1.20;;
21621;SDS011;10973;46.706;12.340;2022-10-04T02:33:19;1.20;;;1.20;;
21621;SDS011;10973;46.706;12.340;2022-10-04T02:35:46;2.00;;;1.70;;
21621;SDS011;10973;46.706;12.340;2022-10-04T02:40:54;1.57;;;1.40;;
21621;SDS011;10973;46.706;12.340;2022-10-04T02:43:41;2.27;;;1.47;;
21621;SDS011;10973;46.706;12.340;2022-10-04T02:46:21;1.63;;;1.20;;
21621;SDS011;10973;46.706;12.340;2022-10-04T02:48:59;1.50;;;1.40;;
21621;SDS011;10973;46.706;12.340;2022-10-04T02:56:55;1.43;;;1.40;;
21621;SDS011;10973;46.706;12.340;2022-10-04T02:59:23;2.07;;;1.70;;
21621;SDS011;10973;46.706;12.340;2022-10-04T03:01:52;3.27;;;1.33;;
21621;SDS011;10973;46.706;12.340;2022-10-04T03:04:27;1.40;;;1.30;;
21621;SDS011;10973;46.706;12.340;2022-10-04T03:07:00;4.00;;;1.40;;
21621;SDS011;10973;46.706;12.340;2022-10-04T03:09:31;1.37;;;1.30;;
21621;SDS011;10973;46.706;12.340;2022-10-04T03:12:03;1.30;;;1.20;;
21621;SDS011;10973;46.706;12.340;2022-10-04T03:14:31;1.67;;;1.57;;
21621;SDS011;10973;46.706;12.340;2022-10-04T03:17:00;2.67;;;1.40;;
21621;SDS011;10973;46.706;12.340;2022-10-04T03:19:31;1.60;;;1.50;;
21621;SDS011;10973;46.706;12.340;2022-10-04T03:22:01;1.40;;;1.40;;
21621;SDS011;10973;46.706;12.340;2022-10-04T03:24:38;1.90;;;1.50;;
21621;SDS011;10973;46.706;12.340;2022-10-04T03:27:35;4.20;;;2.77;;
21621;SDS011;10973;46.706;12.340;2022-10-04T03:30:05;2.00;;;1.90;;
21621;SDS011;10973;46.706;12.340;2022-10-04T03:32:33;1.93;;;1.83;;
21621;SDS011;10973;46.706;12.340;2022-10-04T03:35:02;2.23;;;1.80;;
21621;SDS011;10973;46.706;12.340;2022-10-04T03:37:34;2.90;;;1.50;;
21621;SDS011;10973;46.706;12.340;2022-10-04T03:40:03;1.50;;;1.40;;
21621;SDS011;10973;46.706;12.340;2022-10-04T03:42:35;2.10;;;2.00;;
21621;SDS011;10973;46.706;12.340;2022-10-04T03:45:12;2.27;;;1.67;;
21621;SDS011;10973;46.706;12.340;2022-10-04T03:47:44;2.20;;;2.00;;
21621;SDS011;10973;46.706;12.340;2022-10-04T03:50:24;2.47;;;2.03;;
21621;SDS011;10973;46.706;12.340;2022-10-04T03:53:06;2.27;;;2.10;;
21621;SDS011;10973;46.706;12.340;2022-10-04T03:55:49;3.30;;;2.03;;
21621;SDS011;10973;46.706;12.340;2022-10-04T03:58:17;3.37;;;2.23;;
21621;SDS011;10973;46.706;12.340;2022-10-04T04:04:01;2.60;;;2.40;;
21621;SDS011;10973;46.706;12.340;2022-10-04T04:12:16;4.53;;;2.77;;
21621;SDS011;10973;46.706;12.340;2022-10-04T04:15:00;4.73;;;2.63;;
21621;SDS011;10973;46.706;12.340;2022-10-04T04:20:06;2.53;;;2.33;;
21621;SDS011;10973;46.706;12.340;2022-10-04T04:22:51;4.00;;;2.83;;
21621;SDS011;10973;46.706;12.340;2022-10-04T04:25:39;3.27;;;3.00;;
21621;SDS011;10973;46.706;12.340;2022-10-04T04:30:59;4.87;;;2.80;;
21621;SDS011;10973;46.706;12.340;2022-10-04T04:36:11;3.60;;;2.70;;
21621;SDS011;10973;46.706;12.340;2022-10-04T04:38:42;4.90;;;2.80;;
21621;SDS011;10973;46.706;12.340;2022-10-04T04:41:09;8.33;;;2.60;;
21621;SDS011;10973;46.706;12.340;2022-10-04T04:43:38;2.70;;;2.50;;
21621;SDS011;10973;46.706;12.340;2022-10-04T04:46:09;5.30;;;3.43;;
21621;SDS011;10973;46.706;12.340;2022-10-04T04:49:01;2.80;;;2.60;;
21621;SDS011;10973;46.706;12.340;2022-10-04T04:51:31;5.40;;;3.00;;
21621;SDS011;10973;46.706;12.340;2022-10-04T04:54:00;4.53;;;3.63;;
21621;SDS011;10973;46.706;12.340;2022-10-04T04:56:30;4.33;;;3.93;;
21621;SDS011;10973;46.706;12.340;2022-10-04T04:59:00;11.23;;;3.33;;
21621;SDS011;10973;46.706;12.340;2022-10-04T05:01:36;4.40;;;3.37;;
21621;SDS011;10973;46.706;12.340;2022-10-04T05:06:42;16.77;;;10.70;;
21621;SDS011;10973;46.706;12.340;2022-10-04T05:09:26;22.20;;;15.50;;
21621;SDS011;10973;46.706;12.340;2022-10-04T05:12:34;23.87;;;15.93;;
21621;SDS011;10973;46.706;12.340;2022-10-04T05:14:55;18.40;;;9.30;;
21621;SDS011;10973;46.706;12.340;2022-10-04T05:17:23;14.00;;;7.13;;
21621;SDS011;10973;46.706;12.340;2022-10-04T05:19:58;9.77;;;7.63;;
21621;SDS011;10973;46.706;12.340;2022-10-04T05:22:28;16.60;;;8.73;;
21621;SDS011;10973;46.706;12.340;2022-10-04T05:24:59;22.77;;;10.73;;
21621;SDS011;10973;46.706;12.340;2022-10-04T05:27:35;17.20;;;10.77;;
21621;SDS011;10973;46.706;12.340;2022-10-04T05:32:59;12.57;;;8.23;;
21621;SDS011;10973;46.706;12.340;2022-10-04T05:39:00;19.93;;;12.53;;
21621;SDS011;10973;46.706;12.340;2022-10-04T05:42:10;23.73;;;12.47;;
21621;SDS011;10973;46.706;12.340;2022-10-04T05:44:58;20.43;;;13.40;;
21621;SDS011;10973;46.706;12.340;2022-10-04T05:47:27;20.17;;;13.30;;
21621;SDS011;10973;46.706;12.340;2022-10-04T05:49:57;29.23;;;15.50;;
21621;SDS011;10973;46.706;12.340;2022-10-04T05:52:27;33.00;;;16.70;;
21621;SDS011;10973;46.706;12.340;2022-10-04T05:57:40;11.47;;;8.70;;
21621;SDS011;10973;46.706;12.340;2022-10-04T06:12:22;9.40;;;6.97;;
21621;SDS011;10973;46.706;12.340;2022-10-04T06:23:58;20.77;;;9.97;;
21621;SDS011;10973;46.706;12.340;2022-10-04T06:26:47;18.80;;;8.57;;
21621;SDS011;10973;46.706;12.340;2022-10-04T06:29:48;15.37;;;7.93;;
21621;SDS011;10973;46.706;12.340;2022-10-04T06:38:07;8.77;;;5.73;;
21621;SDS011;10973;46.706;12.340;2022-10-04T06:44:28;8.23;;;5.63;;
21621;SDS011;10973;46.706;12.340;2022-10-04T06:51:00;19.43;;;6.97;;
21621;SDS011;10973;46.706;12.340;2022-10-04T07:00:26;12.57;;;6.43;;
21621;SDS011;10973;46.706;12.340;2022-10-04T07:05:47;9.77;;;4.53;;
21621;SDS011;10973;46.706;12.340;2022-10-04T07:13:55;6.47;;;4.47;;
21621;SDS011;10973;46.706;12.340;2022-10-04T07:16:29;9.40;;;4.13;;
21621;SDS011;10973;46.706;12.340;2022-10-04T07:30:18;5.87;;;4.57;;
21621;SDS011;10973;46.706;12.340;2022-10-04T07:32:46;7.97;;;4.70;;
21621;SDS011;10973;46.706;12.340;2022-10-04T07:35:28;5.80;;;3.93;;
21621;SDS011;10973;46.706;12.340;2022-10-04T07:43:31;3.20;;;2.83;;
21621;SDS011;10973;46.706;12.340;2022-10-04T07:49:21;5.50;;;2.90;;
21621;SDS011;10973;46.706;12.340;2022-10-04T07:52:04;3.20;;;2.53;;
21621;SDS011;10973;46.706;12.340;2022-10-04T08:04:35;2.17;;;1.97;;
21621;SDS011;10973;46.706;12.340;2022-10-04T08:07:21;1.63;;;1.50;;
21621;SDS011;10973;46.706;12.340;2022-10-04T08:11:21;3.60;;;1.67;;
21621;SDS011;10973;46.706;12.340;2022-10-04T08:31:06;2.23;;;2.03;;
21621;SDS011;10973;46.706;12.340;2022-10-04T08:37:27;2.97;;;2.30;;
21621;SDS011;10973;46.706;12.340;2022-10-04T09:00:59;2.97;;;1.73;;
21621;SDS011;10973;46.706;12.340;2022-10-04T09:04:09;10.50;;;2.07;;
21621;SDS011;10973;46.706;12.340;2022-10-04T09:15:52;5.20;;;1.97;;
21621;SDS011;10973;46.706;12.340;2022-10-04T09:27:36;1.90;;;1.17;;
21621;SDS011;10973;46.706;12.340;2022-10-04T09:39:36;2.37;;;1.00;;
21621;SDS011;10973;46.706;12.340;2022-10-04T10:25:26;1.10;;;1.10;;
21621;SDS011;10973;46.706;12.340;2022-10-04T10:42:50;0.80;;;0.80;;
21621;SDS011;10973;46.706;12.340;2022-10-04T10:57:54;1.00;;;1.00;;
21621;SDS011;10973;46.706;12.340;2022-10-04T11:07:31;0.80;;;0.80;;
21621;SDS011;10973;46.706;12.340;2022-10-04T11:16:43;11.83;;;1.57;;
21621;SDS011;10973;46.706;12.340;2022-10-04T11:31:42;1.33;;;1.10;;
21621;SDS011;10973;46.706;12.340;2022-10-04T11:49:53;3.97;;;1.20;;
21621;SDS011;10973;46.706;12.340;2022-10-04T12:10:28;14.55;;;2.15;;
21621;SDS011;10973;46.706;12.340;2022-10-04T12:15:52;4.07;;;1.45;;
21621;SDS011;10973;46.706;12.340;2022-10-04T12:24:00;1.38;;;0.90;;
21621;SDS011;10973;46.706;12.340;2022-10-04T12:32:42;2.25;;;1.00;;
21621;SDS011;10973;46.706;12.340;2022-10-04T12:38:45;1.23;;;1.00;;
21621;SDS011;10973;46.706;12.340;2022-10-04T12:41:41;0.95;;;0.88;;
21621;SDS011;10973;46.706;12.340;2022-10-04T12:50:59;0.80;;;0.80;;
21621;SDS011;10973;46.706;12.340;2022-10-04T13:05:05;1.27;;;1.00;;
21621;SDS011;10973;46.706;12.340;2022-10-04T13:19:59;2.95;;;1.05;;
21621;SDS011;10973;46.706;12.340;2022-10-04T13:28:16;4.17;;;1.37;;
21621;SDS011;10973;46.706;12.340;2022-10-04T13:30:55;1.10;;;1.10;;
21621;SDS011;10973;46.706;12.340;2022-10-04T13:34:16;0.90;;;0.90;;
21621;SDS011;10973;46.706;12.340;2022-10-04T13:51:47;0.73;;;0.73;;
21621;SDS011;10973;46.706;12.340;2022-10-04T14:03:42;2.37;;;0.70;;
21621;SDS011;10973;46.706;12.340;2022-10-04T14:19:34;6.93;;;1.23;;
21621;SDS011;10973;46.706;12.340;2022-10-04T14:22:35;0.80;;;0.80;;
21621;SDS011;10973;46.706;12.340;2022-10-04T14:28:35;1.60;;;0.90;;
21621;SDS011;10973;46.706;12.340;2022-10-04T14:34:21;1.00;;;1.00;;
21621;SDS011;10973;46.706;12.340;2022-10-04T14:46:16;2.40;;;1.10;;
21621;SDS011;10973;46.706;12.340;2022-10-04T14:55:17;1.40;;;1.30;;
21621;SDS011;10973;46.706;12.340;2022-10-04T14:58:12;5.97;;;2.37;;
21621;SDS011;10973;46.706;12.340;2022-10-04T15:01:13;20.67;;;3.87;;
21621;SDS011;10973;46.706;12.340;2022-10-04T15:06:54;2.67;;;2.00;;
21621;SDS011;10973;46.706;12.340;2022-10-04T15:09:49;14.10;;;11.03;;
21621;SDS011;10973;46.706;12.340;2022-10-04T15:18:50;3.67;;;1.20;;
21621;SDS011;10973;46.706;12.340;2022-10-04T15:24:27;2.10;;;0.90;;
21621;SDS011;10973;46.706;12.340;2022-10-04T15:30:08;0.90;;;0.90;;
21621;SDS011;10973;46.706;12.340;2022-10-04T15:33:23;2.60;;;1.20;;
21621;SDS011;10973;46.706;12.340;2022-10-04T15:38:56;1.17;;;1.10;;
21621;SDS011;10973;46.706;12.340;2022-10-04T15:41:36;2.97;;;0.90;;
21621;SDS011;10973;46.706;12.340;2022-10-04T15:45:05;15.27;;;1.93;;
21621;SDS011;10973;46.706;12.340;2022-10-04T15:56:55;1.07;;;0.90;;
21621;SDS011;10973;46.706;12.340;2022-10-04T16:00:11;0.90;;;0.80;;
21621;SDS011;10973;46.706;12.340;2022-10-04T16:22:05;10.17;;;1.97;;
21621;SDS011;10973;46.706;12.340;2022-10-04T16:30:15;6.53;;;2.50;;
21621;SDS011;10973;46.706;12.340;2022-10-04T16:35:34;10.87;;;2.37;;
21621;SDS011;10973;46.706;12.340;2022-10-04T16:38:20;3.07;;;1.90;;
21621;SDS011;10973;46.706;12.340;2022-10-04T16:43:48;2.77;;;1.50;;
21621;SDS011;10973;46.706;12.340;2022-10-04T16:46:30;1.70;;;1.60;;
21621;SDS011;10973;46.706;12.340;2022-10-04T16:49:17;2.53;;;2.33;;
21621;SDS011;10973;46.706;12.340;2022-10-04T16:52:17;3.17;;;2.87;;
21621;SDS011;10973;46.706;12.340;2022-10-04T16:55:45;10.50;;;8.37;;
21621;SDS011;10973;46.706;12.340;2022-10-04T17:10:30;11.90;;;5.70;;
21621;SDS011;10973;46.706;12.340;2022-10-04T17:13:31;5.90;;;3.90;;
21621;SDS011;10973;46.706;12.340;2022-10-04T17:22:12;14.10;;;7.27;;
21621;SDS011;10973;46.706;12.340;2022-10-04T17:25:02;9.13;;;5.90;;
21621;SDS011;10973;46.706;12.340;2022-10-04T17:27:56;18.23;;;7.47;;
21621;SDS011;10973;46.706;12.340;2022-10-04T17:30:52;12.33;;;6.10;;
21621;SDS011;10973;46.706;12.340;2022-10-04T17:42:46;7.03;;;5.57;;
21621;SDS011;10973;46.706;12.340;2022-10-04T17:45:58;8.37;;;4.93;;
21621;SDS011;10973;46.706;12.340;2022-10-04T17:49:00;5.10;;;4.60;;
21621;SDS011;10973;46.706;12.340;2022-10-04T17:51:47;4.30;;;3.67;;
21621;SDS011;10973;46.706;12.340;2022-10-04T17:54:25;4.97;;;3.30;;
21621;SDS011;10973;46.706;12.340;2022-10-04T18:00:05;7.90;;;5.10;;
21621;SDS011;10973;46.706;12.340;2022-10-04T18:05:51;13.40;;;10.27;;
21621;SDS011;10973;46.706;12.340;2022-10-04T18:11:40;10.87;;;8.60;;
21621;SDS011;10973;46.706;12.340;2022-10-04T18:17:06;10.63;;;8.23;;
21621;SDS011;10973;46.706;12.340;2022-10-04T18:20:05;15.13;;;11.77;;
21621;SDS011;10973;46.706;12.340;2022-10-04T18:22:57;7.80;;;6.97;;
21621;SDS011;10973;46.706;12.340;2022-10-04T18:25:28;12.33;;;8.30;;
21621;SDS011;10973;46.706;12.340;2022-10-04T18:33:15;4.30;;;3.90;;
21621;SDS011;10973;46.706;12.340;2022-10-04T18:36:03;8.03;;;5.37;;
21621;SDS011;10973;46.706;12.340;2022-10-04T18:38:42;6.27;;;4.93;;
21621;SDS011;10973;46.706;12.340;2022-10-04T18:46:23;6.33;;;4.80;;
21621;SDS011;10973;46.706;12.340;2022-10-04T18:48:58;9.30;;;6.53;;
21621;SDS011;10973;46.706;12.340;2022-10-04T18:58:05;5.77;;;4.30;;
21621;SDS011;10973;46.706;12.340;2022-10-04T19:00:40;8.90;;;5.53;;
21621;SDS011;10973;46.706;12.340;2022-10-04T19:06:07;7.30;;;4.83;;
21621;SDS011;10973;46.706;12.340;2022-10-04T19:08:54;7.20;;;4.80;;
21621;SDS011;10973;46.706;12.340;2022-10-04T19:11:42;6.50;;;4.83;;
21621;SDS011;10973;46.706;12.340;2022-10-04T19:17:25;4.97;;;4.07;;
21621;SDS011;10973;46.706;12.340;2022-10-04T19:20:05;6.00;;;4.00;;
21621;SDS011;10973;46.706;12.340;2022-10-04T19:25:35;4.50;;;4.10;;
21621;SDS011;10973;46.706;12.340;2022-10-04T19:28:31;5.33;;;4.33;;
21621;SDS011;10973;46.706;12.340;2022-10-04T19:34:10;6.77;;;3.80;;
21621;SDS011;10973;46.706;12.340;2022-10-04T19:36:57;4.43;;;3.03;;
21621;SDS011;10973;46.706;12.340;2022-10-04T19:48:40;4.93;;;3.57;;
21621;SDS011;10973;46.706;12.340;2022-10-04T19:54:10;3.00;;;2.57;;
21621;SDS011;10973;46.706;12.340;2022-10-04T19:56:45;3.10;;;2.80;;
21621;SDS011;10973;46.706;12.340;2022-10-04T19:59:16;4.50;;;3.10;;
21621;SDS011;10973;46.706;12.340;2022-10-04T20:01:46;3.33;;;3.03;;
21621;SDS011;10973;46.706;12.340;2022-10-04T20:04:14;6.23;;;3.60;;
21621;SDS011;10973;46.706;12.340;2022-10-04T20:06:52;4.80;;;3.23;;
21621;SDS011;10973;46.706;12.340;2022-10-04T20:12:33;5.77;;;3.27;;
21621;SDS011;10973;46.706;12.340;2022-10-04T20:17:54;2.83;;;2.50;;
21621;SDS011;10973;46.706;12.340;2022-10-04T20:23:07;3.53;;;3.20;;
21621;SDS011;10973;46.706;12.340;2022-10-04T20:28:09;2.73;;;2.40;;
21621;SDS011;10973;46.706;12.340;2022-10-04T20:31:01;2.60;;;2.40;;
21621;SDS011;10973;46.706;12.340;2022-10-04T20:36:58;3.47;;;2.43;;
21621;SDS011;10973;46.706;12.340;2022-10-04T20:39:08;3.00;;;2.40;;
21621;SDS011;10973;46.706;12.340;2022-10-04T20:42:14;3.37;;;2.53;;
21621;SDS011;10973;46.706;12.340;2022-10-04T20:44:57;3.57;;;2.77;;
21621;SDS011;10973;46.706;12.340;2022-10-04T20:47:33;3.77;;;3.10;;
21621;SDS011;10973;46.706;12.340;2022-10-04T20:50:37;2.60;;;2.40;;
21621;SDS011;10973;46.706;12.340;2022-10-04T20:53:11;2.50;;;2.30;;
21621;SDS011;10973;46.706;12.340;2022-10-04T20:55:49;3.73;;;2.63;;
21621;SDS011;10973;46.706;12.340;2022-10-04T20:58:33;5.30;;;3.80;;
21621;SDS011;10973;46.706;12.340;2022-10-04T21:01:02;3.70;;;2.90;;
21621;SDS011;10973;46.706;12.340;2022-10-04T21:03:49;5.70;;;3.63;;
21621;SDS011;10973;46.706;12.340;2022-10-04T21:06:16;3.60;;;2.57;;
21621;SDS011;10973;46.706;12.340;2022-10-04T21:08:44;4.17;;;2.90;;
21621;SDS011;10973;46.706;12.340;2022-10-04T21:11:18;3.00;;;2.80;;
21621;SDS011;10973;46.706;12.340;2022-10-04T21:13:53;2.60;;;2.40;;
21621;SDS011;10973;46.706;12.340;2022-10-04T21:22:03;1.83;;;1.73;;
21621;SDS011;10973;46.706;12.340;2022-10-04T21:24:37;4.17;;;1.90;;
21621;SDS011;10973;46.706;12.340;2022-10-04T21:27:35;3.67;;;2.70;;
21621;SDS011;10973;46.706;12.340;2022-10-04T21:30:11;3.17;;;2.87;;
21621;SDS011;10973;46.706;12.340;2022-10-04T21:32:41;4.43;;;2.10;;
21621;SDS011;10973;46.706;12.340;2022-10-04T21:35:09;2.83;;;2.50;;
21621;SDS011;10973;46.706;12.340;2022-10-04T21:37:38;3.30;;;2.47;;
21621;SDS011;10973;46.706;12.340;2022-10-04T21:40:05;2.03;;;1.93;;
21621;SDS011;10973;46.706;12.340;2022-10-04T21:42:34;2.90;;;1.80;;
21621;SDS011;10973;46.706;12.340;2022-10-04T21:45:01;2.70;;;1.93;;
21621;SDS011;10973;46.706;12.340;2022-10-04T21:47:29;2.57;;;2.37;;
21621;SDS011;10973;46.706;12.340;2022-10-04T21:49:56;2.23;;;2.03;;
21621;SDS011;10973;46.706;12.340;2022-10-04T21:52:23;2.03;;;1.77;;
21621;SDS011;10973;46.706;12.340;2022-10-04T21:54:50;2.10;;;1.93;;
21621;SDS011;10973;46.706;12.340;2022-10-04T21:57:18;1.97;;;1.87;;
21621;SDS011;10973;46.706;12.340;2022-10-04T21:59:45;3.40;;;2.03;;
21621;SDS011;10973;46.706;12.340;2022-10-04T22:02:12;2.77;;;2.23;;
21621;SDS011;10973;46.706;12.340;2022-10-04T22:04:39;2.23;;;2.13;;
21621;SDS011;10973;46.706;12.340;2022-10-04T22:07:07;2.10;;;2.00;;
21621;SDS011;10973;46.706;12.340;2022-10-04T22:09:34;2.10;;;2.00;;
21621;SDS011;10973;46.706;12.340;2022-10-04T22:12:01;2.30;;;1.87;;
21621;SDS011;10973;46.706;12.340;2022-10-04T22:14:29;2.53;;;2.33;;
21621;SDS011;10973;46.706;12.340;2022-10-04T22:16:56;3.67;;;2.30;;
21621;SDS011;10973;46.706;12.340;2022-10-04T22:19:23;4.43;;;2.73;;
21621;SDS011;10973;46.706;12.340;2022-10-04T22:21:51;2.50;;;2.33;;
21621;SDS011;10973;46.706;12.340;2022-10-04T22:24:18;3.20;;;1.97;;
21621;SDS011;10973;46.706;12.340;2022-10-04T22:26:46;2.33;;;2.13;;
21621;SDS011;10973;46.706;12.340;2022-10-04T22:29:14;2.70;;;2.00;;
21621;SDS011;10973;46.706;12.340;2022-10-04T22:31:52;1.90;;;1.80;;
21621;SDS011;10973;46.706;12.340;2022-10-04T22:34:20;2.27;;;2.10;;
21621;SDS011;10973;46.706;12.340;2022-10-04T22:36:48;2.13;;;2.03;;
21621;SDS011;10973;46.706;12.340;2022-10-04T22:39:16;2.83;;;2.30;;
21621;SDS011;10973;46.706;12.340;2022-10-04T22:41:52;2.20;;;2.10;;
21621;SDS011;10973;46.706;12.340;2022-10-04T22:44:25;2.83;;;1.80;;
21621;SDS011;10973;46.706;12.340;2022-10-04T22:47:00;3.07;;;2.30;;
21621;SDS011;10973;46.706;12.340;2022-10-04T22:49:33;2.00;;;1.90;;
21621;SDS011;10973;46.706;12.340;2022-10-04T22:52:05;2.23;;;1.87;;
21621;SDS011;10973;46.706;12.340;2022-10-04T22:54:49;1.90;;;1.80;;
21621;SDS011;10973;46.706;12.340;2022-10-04T22:57:23;2.03;;;1.93;;
21621;SDS011;10973;46.706;12.340;2022-10-04T22:59:50;3.10;;;1.93;;
21621;SDS011;10973;46.706;12.340;2022-10-04T23:02:19;3.23;;;1.70;;
21621;SDS011;10973;46.706;12.340;2022-10-04T23:04:50;2.37;;;2.17;;
21621;SDS011;10973;46.706;12.340;2022-10-04T23:07:20;2.00;;;1.90;;
21621;SDS011;10973;46.706;12.340;2022-10-04T23:09:48;1.80;;;1.70;;
21621;SDS011;10973;46.706;12.340;2022-10-04T23:12:15;2.00;;;1.90;;
21621;SDS011;10973;46.706;12.340;2022-10-04T23:14:43;2.10;;;2.00;;
21621;SDS011;10973;46.706;12.340;2022-10-04T23:19:56;2.17;;;1.70;;
21621;SDS011;10973;46.706;12.340;2022-10-04T23:22:29;1.83;;;1.73;;
21621;SDS011;10973;46.706;12.340;2022-10-04T23:24:56;1.70;;;1.60;;
21621;SDS011;10973;46.706;12.340;2022-10-04T23:27:24;4.20;;;1.97;;
21621;SDS011;10973;46.706;12.340;2022-10-04T23:29:56;1.90;;;1.80;;
21621;SDS011;10973;46.706;12.340;2022-10-04T23:32:28;1.80;;;1.70;;
21621;SDS011;10973;46.706;12.340;2022-10-04T23:34:58;1.90;;;1.80;;
21621;SDS011;10973;46.706;12.340;2022-10-04T23:37:29;2.30;;;1.80;;
21621;SDS011;10973;46.706;12.340;2022-10-04T23:39:58;1.70;;;1.60;;
21621;SDS011;10973;46.706;12.340;2022-10-04T23:42:26;2.00;;;1.90;;
21621;SDS011;10973;46.706;12.340;2022-10-04T23:44:59;2.47;;;1.70;;
21621;SDS011;10973;46.706;12.340;2022-10-04T23:47:31;1.87;;;1.77;;
21621;SDS011;10973;46.706;12.340;2022-10-04T23:50:03;2.43;;;1.83;;
21621;SDS011;10973;46.706;12.340;2022-10-04T23:52:45;2.00;;;1.80;;
21621;SDS011;10973;46.706;12.340;2022-10-04T23:55:22;2.80;;;1.80;;
21621;SDS011;10973;46.706;12.340;2022-10-04T23:57:55;2.50;;;2.37;;
